Maike D — V2FO4 — position and weather

sailwx.info

Track history (hours):
 
Tides and Currents Weather Stations Pressure Air Temp Water Temp Dewpoint Dewpoint Depression Visibility Wind Speed Wind Dir Waves Ship Positions

Maike D

Last reported at 2014-Oct-19 11:33 UTC. Time now 2014-Oct-23 04:30 UTC.
Position N 36°30' E 026°38'.

Length 133 m; draft 7.5 m.

Type: Ship (hazmat cat A). MMSI: 305739000.

Date/timePositionNaut miles runAvg speedWind from/ knotsBaromVisibWave heightAir tempDewpointWater temp
2014-Oct-19 11:33N 36°30' E 026°38'1211.9
2014-Oct-19 10:32N 36°40' E 026°28'2512.2
2014-Oct-19 08:31N 36°60' E 026°11'1212.3
2014-Oct-19 07:33N 37°10' E 026°04'1212.0
2014-Oct-19 06:33N 37°21' E 025°57'1212.3
2014-Oct-19 05:33N 37°32' E 025°51'  
2014-Oct-14 04:19N 46°13' E 030°56'1012.8
2014-Oct-14 03:34N 46°23' E 030°51'8 1.5
2014-Oct-13 22:10N 46°29' E 030°45'5 0.3
2014-Oct-13 06:03N 46°30' E 030°53'9612.6
2014-Oct-12 22:28N 45°14' E 032°17'1213.5
2014-Oct-12 21:33N 45°05' E 032°29'1513.5
2014-Oct-12 20:27N 44°54' E 032°43'1213.8
2014-Oct-12 19:33N 44°45' E 032°55'1413.6
2014-Oct-12 18:32N 44°35' E 033°08'12013.0
2014-Oct-12 09:18N 44°16' E 035°54'1013.9
2014-Oct-12 08:33N 44°15' E 036°08'1413.8
2014-Oct-12 07:34N 44°14' E 036°27'1413.8
2014-Oct-12 06:33N 44°13' E 036°47'1414.0
2014-Oct-12 05:33N 44°19' E 037°04'1514.3
2014-Oct-12 04:32N 44°25' E 037°23'1414.4
2014-Oct-12 03:33N 44°32' E 037°40'1111.5
2014-Oct-12 02:33N 44°41' E 037°50'3 2.6
2014-Oct-12 01:33N 44°43' E 037°49'0 0.0
2014-Oct-12 00:33N 44°43' E 037°49'0 0.0
2014-Oct-11 23:33N 44°43' E 037°49'0 0.0
2014-Oct-11 22:33N 44°43' E 037°49'0 0.0
2014-Oct-11 21:33N 44°43' E 037°49'0 0.0
2014-Oct-11 20:33N 44°43' E 037°49'0 0.0
2014-Oct-11 19:33N 44°43' E 037°49'0 0.0
2014-Oct-11 18:33N 44°43' E 037°49'0 0.0
2014-Oct-11 17:33N 44°43' E 037°49'0 0.0
2014-Oct-11 16:33N 44°43' E 037°49'0 0.0
2014-Oct-11 15:33N 44°43' E 037°49'0 0.0
2014-Oct-11 14:27N 44°43' E 037°49'0 0.0
2014-Oct-11 13:33N 44°43' E 037°49'0 0.0
2014-Oct-11 12:33N 44°43' E 037°49'0 0.0
2014-Oct-11 11:33N 44°43' E 037°49'0 0.0
2014-Oct-11 10:33N 44°43' E 037°49'0 0.0
2014-Oct-11 09:33N 44°43' E 037°49'0 0.0
2014-Oct-11 08:33N 44°43' E 037°49'0 0.0
2014-Oct-11 07:33N 44°43' E 037°49'0 0.0
2014-Oct-11 06:33N 44°43' E 037°49'0 0.0
2014-Oct-11 05:33N 44°43' E 037°49'0 0.0
2014-Oct-11 04:33N 44°43' E 037°49'3 3.3
2014-Oct-11 03:33N 44°40' E 037°50'7 6.7
2014-Oct-11 02:33N 44°33' E 037°51'4 3.9
2014-Oct-11 01:32N 44°30' E 037°51'1 0.6
2014-Oct-11 00:32N 44°29' E 037°51'0 0.4
2014-Oct-10 23:32N 44°30' E 037°52'0 0.4
2014-Oct-10 22:29N 44°30' E 037°52'1 0.6
2014-Oct-10 21:32N 44°31' E 037°52'0 0.3
2014-Oct-10 20:32N 44°31' E 037°53'7 6.4
2014-Oct-10 19:30N 44°28' E 037°44'1 1.0
2014-Oct-10 18:24N 44°28' E 037°46'2 0.8
2014-Oct-10 16:27N 44°28' E 037°48'1 0.6
2014-Oct-10 15:33N 44°29' E 037°48'1 0.6
2014-Oct-10 14:33N 44°29' E 037°49'0 0.5
2014-Oct-10 13:33N 44°30' E 037°48'0 0.5
2014-Oct-10 12:33N 44°30' E 037°48'0 0.4
2014-Oct-10 11:33N 44°30' E 037°47'8 8.1
2014-Oct-10 10:34N 44°28' E 037°36'1313.1
2014-Oct-10 09:34N 44°21' E 037°21'5613.4
2014-Oct-10 05:23N 43°56' E 036°11'1112.6
2014-Oct-10 04:31N 43°51' E 035°57'  
Track history (hours):
 
Tides and Currents Weather Stations Pressure Air Temp Water Temp Dewpoint Dewpoint Depression Visibility Wind Speed Wind Dir Waves Ship Positions

Maike D

Last reported at 2014-Oct-19 11:33 UTC. Time now 2014-Oct-23 04:30 UTC.
Position N 36°30' E 026°38'.

Length 133 m; draft 7.5 m.

Type: Ship (hazmat cat A). MMSI: 305739000.

Date/timePositionNaut miles runAvg speedWind from/ knotsBaromVisibWave heightAir tempDewpointWater temp
2014-Oct-19 11:33N 36°30' E 026°38'1211.9
2014-Oct-19 10:32N 36°40' E 026°28'2512.2
2014-Oct-19 08:31N 36°60' E 026°11'1212.3
2014-Oct-19 07:33N 37°10' E 026°04'1212.0
2014-Oct-19 06:33N 37°21' E 025°57'1212.3
2014-Oct-19 05:33N 37°32' E 025°51'  
2014-Oct-14 04:19N 46°13' E 030°56'1012.8
2014-Oct-14 03:34N 46°23' E 030°51'8 1.5
2014-Oct-13 22:10N 46°29' E 030°45'5 0.3
2014-Oct-13 06:03N 46°30' E 030°53'9612.6
2014-Oct-12 22:28N 45°14' E 032°17'1213.5
2014-Oct-12 21:33N 45°05' E 032°29'1513.5
2014-Oct-12 20:27N 44°54' E 032°43'1213.8
2014-Oct-12 19:33N 44°45' E 032°55'1413.6
2014-Oct-12 18:32N 44°35' E 033°08'12013.0
2014-Oct-12 09:18N 44°16' E 035°54'1013.9
2014-Oct-12 08:33N 44°15' E 036°08'1413.8
2014-Oct-12 07:34N 44°14' E 036°27'1413.8
2014-Oct-12 06:33N 44°13' E 036°47'1414.0
2014-Oct-12 05:33N 44°19' E 037°04'1514.3
2014-Oct-12 04:32N 44°25' E 037°23'1414.4
2014-Oct-12 03:33N 44°32' E 037°40'1111.5
2014-Oct-12 02:33N 44°41' E 037°50'3 2.6
2014-Oct-12 01:33N 44°43' E 037°49'0 0.0
2014-Oct-12 00:33N 44°43' E 037°49'0 0.0
2014-Oct-11 23:33N 44°43' E 037°49'0 0.0
2014-Oct-11 22:33N 44°43' E 037°49'0 0.0
2014-Oct-11 21:33N 44°43' E 037°49'0 0.0
2014-Oct-11 20:33N 44°43' E 037°49'0 0.0
2014-Oct-11 19:33N 44°43' E 037°49'0 0.0
2014-Oct-11 18:33N 44°43' E 037°49'0 0.0
2014-Oct-11 17:33N 44°43' E 037°49'0 0.0
2014-Oct-11 16:33N 44°43' E 037°49'0 0.0
2014-Oct-11 15:33N 44°43' E 037°49'0 0.0
2014-Oct-11 14:27N 44°43' E 037°49'0 0.0
2014-Oct-11 13:33N 44°43' E 037°49'0 0.0
2014-Oct-11 12:33N 44°43' E 037°49'0 0.0
2014-Oct-11 11:33N 44°43' E 037°49'0 0.0
2014-Oct-11 10:33N 44°43' E 037°49'0 0.0
2014-Oct-11 09:33N 44°43' E 037°49'0 0.0
2014-Oct-11 08:33N 44°43' E 037°49'0 0.0
2014-Oct-11 07:33N 44°43' E 037°49'0 0.0
2014-Oct-11 06:33N 44°43' E 037°49'0 0.0
2014-Oct-11 05:33N 44°43' E 037°49'0 0.0
2014-Oct-11 04:33N 44°43' E 037°49'3 3.3
2014-Oct-11 03:33N 44°40' E 037°50'7 6.7
2014-Oct-11 02:33N 44°33' E 037°51'4 3.9
2014-Oct-11 01:32N 44°30' E 037°51'1 0.6
2014-Oct-11 00:32N 44°29' E 037°51'0 0.4
2014-Oct-10 23:32N 44°30' E 037°52'0 0.4
2014-Oct-10 22:29N 44°30' E 037°52'1 0.6
2014-Oct-10 21:32N 44°31' E 037°52'0 0.3
2014-Oct-10 20:32N 44°31' E 037°53'7 6.4
2014-Oct-10 19:30N 44°28' E 037°44'1 1.0
2014-Oct-10 18:24N 44°28' E 037°46'2 0.8
2014-Oct-10 16:27N 44°28' E 037°48'1 0.6
2014-Oct-10 15:33N 44°29' E 037°48'1 0.6
2014-Oct-10 14:33N 44°29' E 037°49'0 0.5
2014-Oct-10 13:33N 44°30' E 037°48'0 0.5
2014-Oct-10 12:33N 44°30' E 037°48'0 0.4
2014-Oct-10 11:33N 44°30' E 037°47'8 8.1
2014-Oct-10 10:34N 44°28' E 037°36'1313.1
2014-Oct-10 09:34N 44°21' E 037°21'5613.4
2014-Oct-10 05:23N 43°56' E 036°11'1112.6
2014-Oct-10 04:31N 43°51' E 035°57'  

Dump ship's entire track history